METAR de aeropuertos de Murcia y cercanos

 

LEAL - Alicante
Actualización: 16/08/2018 08:00
Partly Cloudy
Partly Cloudy
 Viento del O
Viento: O 4 km/h
Temperatura: 25°C
Rocío: 23°C
Humedad: 89%
Barómetro: 1015 hPa
Nubosidad: Partly Cloudy
Visibilidad: 10 km
Cloud details: Few Clouds 518 m
Partly Cloudy 823 m
2018/08/16 06:00 LEAL 160600Z 27002KT 9999 FEW017 SCT027 25/23 Q1015 NOSIG
LEAB - Albacete
Actualización: 16/08/2018 08:00
Despejado
Despejado
 Viento del SSE
Viento: SSE 9 km/h
Temperatura: 20°C
Rocío: 18°C
Humedad: 88%
Barómetro: 1019 hPa
Resumen: Despejado
Visibilidad: greater than 10 km
2018/08/16 06:00 LEAB 160600Z 15005KT CAVOK 20/18 Q1019 NOSIG
LEAM - Almería
Actualización: 16/08/2018 08:00
Despejado
Despejado
 Viento del NNO
Viento: NNO 15 km/h
Temperatura: 25°C
Rocío: 20°C
Humedad: 74%
Barómetro: 1015 hPa
Resumen: Despejado
Visibilidad: greater than 10 km
2018/08/16 06:00 LEAM 160600Z 33008KT CAVOK 25/20 Q1015
 
LERI - Murcia/Alcantarilla
Actualización: 16/08/2018 08:00
Despejado
Despejado
 Viento del O
Viento: O 7 km/h
Temperatura: 21°C
Rocío: 19°C
Humedad: 88%
Barómetro: 1016 hPa
Resumen: Despejado
Visibilidad: greater than 10 km
2018/08/16 06:00 LERI 160600Z 28004KT CAVOK 21/19 Q1016 NOSIG
LELC - Murcia/San Javier
Actualización: 16/08/2018 08:00
Partly Cloudy
Partly Cloudy
 Viento del NNO
Viento: NNO 9 km/h
Temperatura: 25°C
Rocío: 22°C
Humedad: 83%
Barómetro: 1015 hPa
Nubosidad: Partly Cloudy
Visibilidad: 10 km
Cloud details: Partly Cloudy 549 m
2018/08/16 06:00 LELC 160600Z 34005KT 9999 SCT018 25/22 Q1015 NOSIG

La estación de MeteoMurcia.com, publica sus datos en los siguientes proyectos:

Meteoclimatic www.awekas.at

W3Counter
Web Analytics